createdAt,value
2018-12-03T00:00:15.752Z,73.50
2018-12-03T00:02:43.429Z,73.49
2018-12-03T00:05:11.077Z,73.83
2018-12-03T00:07:38.721Z,74.30
2018-12-03T00:10:07.936Z,73.91
2018-12-03T00:12:35.583Z,74.12
2018-12-03T00:15:03.850Z,74.47
2018-12-03T00:17:31.514Z,75.37
2018-12-03T00:19:59.154Z,75.26
2018-12-03T00:22:26.835Z,75.38
2018-12-03T00:24:54.801Z,74.92
2018-12-03T00:27:22.459Z,74.79
2018-12-03T00:29:50.143Z,75.65
2018-12-03T00:32:17.850Z,74.78
2018-12-03T00:34:45.489Z,74.52
2018-12-03T00:37:13.112Z,74.54
2018-12-03T00:39:40.822Z,75.04
2018-12-03T00:42:08.471Z,75.45
2018-12-03T00:44:36.141Z,75.24
2018-12-03T00:47:04.004Z,75.15
2018-12-03T00:49:31.666Z,74.96
2018-12-03T00:51:59.282Z,75.33
2018-12-03T00:54:26.933Z,75.69
2018-12-03T00:56:54.582Z,75.04
2018-12-03T00:59:22.225Z,74.42
2018-12-03T01:01:49.910Z,74.00
2018-12-03T01:04:17.585Z,73.69
2018-12-03T01:06:45.261Z,73.96
2018-12-03T01:09:12.956Z,74.35
2018-12-03T01:11:40.614Z,73.65
2018-12-03T01:14:08.257Z,73.64
2018-12-03T01:16:35.937Z,73.51
2018-12-03T01:19:03.805Z,73.34
2018-12-03T01:21:31.466Z,73.09
2018-12-03T01:23:59.129Z,73.12
2018-12-03T01:26:26.753Z,72.86
2018-12-03T01:28:54.454Z,73.44
2018-12-03T01:31:22.095Z,72.88
2018-12-03T01:33:49.791Z,72.85
2018-12-03T01:36:17.488Z,73.30
2018-12-03T01:38:45.129Z,73.27
2018-12-03T01:41:12.861Z,73.57
2018-12-03T01:43:40.529Z,73.29
2018-12-03T01:46:08.177Z,72.66
2018-12-03T01:48:35.913Z,72.91
2018-12-03T01:51:03.988Z,73.12
2018-12-03T01:53:31.666Z,72.80
2018-12-03T01:55:59.287Z,72.72
2018-12-03T01:58:26.938Z,73.23
2018-12-03T02:00:55.626Z,72.67
2018-12-03T02:03:23.418Z,72.94
2018-12-03T02:05:51.069Z,73.22
2018-12-03T02:08:18.730Z,73.36
2018-12-03T02:10:46.430Z,73.26
2018-12-03T02:13:14.112Z,73.20
2018-12-03T02:15:41.807Z,72.60
2018-12-03T02:18:09.520Z,72.63
2018-12-03T02:20:37.174Z,72.97
2018-12-03T02:23:04.828Z,72.91
2018-12-03T02:25:32.459Z,73.29
2018-12-03T02:28:00.128Z,72.92
2018-12-03T02:30:27.858Z,73.12
2018-12-03T02:32:55.449Z,73.32
2018-12-03T02:35:23.122Z,72.82
2018-12-03T02:37:50.745Z,72.71
2018-12-03T02:40:18.394Z,72.86
2018-12-03T02:42:46.169Z,73.65
2018-12-03T02:45:14.365Z,73.58
2018-12-03T02:47:42.021Z,73.53
2018-12-03T02:50:14.025Z,72.84
2018-12-03T02:52:41.717Z,72.99
2018-12-03T02:55:10.759Z,73.32
2018-12-03T02:57:38.543Z,73.24
2018-12-03T03:00:11.329Z,73.08
2018-12-03T03:02:38.998Z,72.37
2018-12-03T03:05:09.246Z,71.83
2018-12-03T03:07:36.981Z,71.83
2018-12-03T03:10:11.132Z,72.49
2018-12-03T03:12:39.045Z,72.37
2018-12-03T03:15:10.902Z,72.67
2018-12-03T03:17:38.868Z,72.17
2018-12-03T03:20:08.899Z,71.69
2018-12-03T03:22:36.619Z,72.12
2018-12-03T03:25:04.670Z,72.52
2018-12-03T03:27:32.329Z,73.12
2018-12-03T03:29:59.957Z,72.95
2018-12-03T03:32:27.645Z,72.98
2018-12-03T03:34:55.457Z,74.20
2018-12-03T03:37:23.086Z,74.78
2018-12-03T03:39:50.765Z,74.47
2018-12-03T03:42:18.511Z,74.01
2018-12-03T03:44:46.275Z,74.51
2018-12-03T03:47:13.978Z,73.84
2018-12-03T03:49:41.555Z,74.18
2018-12-03T03:52:16.096Z,73.76
2018-12-03T03:54:43.728Z,74.78
2018-12-03T03:57:11.365Z,74.68
2018-12-03T03:59:39.038Z,73.91
2018-12-03T04:02:06.742Z,73.52
2018-12-03T04:04:34.437Z,73.80
2018-12-03T04:07:02.149Z,73.87
2018-12-03T04:09:29.826Z,74.08
2018-12-03T04:11:57.574Z,73.81
2018-12-03T04:14:25.327Z,74.02
2018-12-03T04:16:52.950Z,73.77
2018-12-03T04:19:20.622Z,73.84
2018-12-03T04:21:48.386Z,74.22
2018-12-03T04:24:16.035Z,74.30
2018-12-03T04:26:43.736Z,74.10
2018-12-03T04:29:11.406Z,74.62
2018-12-03T04:31:39.122Z,74.43
2018-12-03T04:34:07.106Z,74.10
2018-12-03T04:36:34.873Z,73.32
2018-12-03T04:39:05.615Z,73.64
2018-12-03T04:41:33.346Z,73.71
2018-12-03T04:44:01.076Z,73.82
2018-12-03T04:46:28.810Z,73.33
2018-12-03T04:48:56.497Z,73.90
2018-12-03T04:51:24.229Z,74.05
2018-12-03T04:53:51.873Z,74.39
2018-12-03T04:56:19.533Z,74.50
2018-12-03T04:58:47.336Z,74.02
2018-12-03T05:01:15.858Z,74.78
2018-12-03T05:03:43.566Z,74.57
2018-12-03T05:06:11.314Z,74.13
2018-12-03T05:08:38.969Z,73.96
2018-12-03T05:11:06.738Z,74.44
2018-12-03T05:13:34.504Z,73.58
2018-12-03T05:16:02.372Z,74.49
2018-12-03T05:18:30.169Z,73.87
2018-12-03T05:20:57.828Z,73.48
2018-12-03T05:23:25.497Z,73.10
2018-12-03T05:25:53.226Z,73.25
2018-12-03T05:28:21.019Z,73.65
2018-12-03T05:30:48.684Z,73.34
2018-12-03T05:33:16.335Z,73.14
2018-12-03T05:35:43.969Z,73.64
2018-12-03T05:38:11.637Z,73.83
2018-12-03T05:40:39.402Z,73.69
2018-12-03T05:43:07.112Z,73.12
2018-12-03T05:45:34.797Z,73.34
2018-12-03T05:48:02.454Z,73.53
2018-12-03T05:50:30.114Z,73.14
2018-12-03T05:52:57.871Z,73.53
2018-12-03T05:55:25.514Z,74.26
2018-12-03T05:57:53.130Z,74.11
2018-12-03T06:00:22.341Z,73.92
2018-12-03T06:02:49.998Z,73.83
2018-12-03T06:05:17.675Z,73.57
2018-12-03T06:07:45.319Z,73.71
2018-12-03T06:10:18.564Z,74.28
2018-12-03T06:12:46.230Z,73.86
2018-12-03T06:15:16.098Z,74.37
2018-12-03T06:17:44.298Z,74.55
2018-12-03T06:20:13.897Z,74.65
2018-12-03T06:22:41.689Z,74.80
2018-12-03T06:25:13.252Z,74.47
2018-12-03T06:27:40.909Z,73.73
2018-12-03T06:30:19.205Z,73.90
2018-12-03T06:32:46.987Z,73.97
2018-12-03T06:35:15.644Z,74.65
2018-12-03T06:37:43.385Z,74.62
2018-12-03T06:40:28.797Z,74.09
2018-12-03T06:42:56.565Z,74.44
2018-12-03T06:45:25.147Z,74.53
2018-12-03T06:48:08.322Z,74.31
2018-12-03T06:50:35.993Z,73.81
2018-12-03T06:53:03.678Z,74.19
2018-12-03T06:55:31.372Z,74.17
2018-12-03T06:57:59.088Z,72.95
2018-12-03T07:00:26.817Z,73.08
2018-12-03T07:02:54.603Z,73.65
2018-12-03T07:05:22.270Z,74.52
2018-12-03T07:07:53.358Z,74.52
2018-12-03T07:10:22.349Z,73.68
2018-12-03T07:12:52.452Z,73.38
2018-12-03T07:15:21.478Z,74.36
2018-12-03T07:17:51.575Z,74.02
2018-12-03T07:20:19.295Z,74.71
2018-12-03T07:22:46.928Z,74.05
2018-12-03T07:25:14.669Z,74.36
2018-12-03T07:27:42.348Z,73.65
2018-12-03T07:30:17.588Z,73.80
2018-12-03T07:32:47.269Z,74.15
2018-12-03T07:35:14.520Z,74.17
2018-12-03T07:37:42.558Z,73.86
2018-12-03T07:40:11.577Z,73.91
2018-12-03T07:42:40.326Z,73.78
2018-12-03T07:45:24.787Z,73.53
2018-12-03T07:47:52.431Z,73.26
2018-12-03T07:50:21.779Z,73.01
2018-12-03T07:52:49.475Z,73.06
2018-12-03T07:55:20.506Z,73.07
2018-12-03T07:57:57.114Z,72.71
2018-12-03T08:00:27.905Z,72.78
2018-12-03T08:02:55.611Z,72.70
2018-12-03T08:05:23.318Z,72.21
2018-12-03T08:07:50.925Z,72.32
2018-12-03T08:10:18.896Z,71.85
2018-12-03T08:12:47.979Z,71.71
2018-12-03T08:15:17.599Z,70.86
2018-12-03T08:17:52.690Z,71.16
2018-12-03T08:20:24.469Z,70.93
2018-12-03T08:22:55.819Z,71.31
2018-12-03T08:25:24.219Z,71.15
2018-12-03T08:27:52.957Z,71.39
2018-12-03T08:30:20.687Z,72.14
2018-12-03T08:32:48.464Z,72.55
2018-12-03T08:35:17.534Z,72.90
2018-12-03T08:37:45.407Z,72.76
2018-12-03T08:40:18.516Z,72.57
2018-12-03T08:42:51.150Z,72.04
2018-12-03T08:45:20.068Z,72.34
2018-12-03T08:47:49.250Z,72.32
2018-12-03T08:50:20.633Z,71.59
2018-12-03T08:52:48.356Z,71.17
2018-12-03T08:55:16.028Z,69.24
2018-12-03T08:57:43.722Z,69.01
2018-12-03T09:00:14.977Z,68.95
2018-12-03T09:03:26.339Z,69.43
2018-12-03T09:05:54.074Z,69.24
2018-12-03T09:08:21.829Z,69.62
2018-12-03T09:10:50.087Z,69.22
2018-12-03T09:13:20.752Z,68.67
2018-12-03T09:16:03.234Z,69.72
2018-12-03T09:18:33.786Z,69.32
2018-12-03T09:21:01.638Z,69.59
2018-12-03T09:23:29.396Z,70.71
2018-12-03T09:25:57.129Z,70.43
2018-12-03T09:28:24.866Z,70.17
2018-12-03T09:30:52.598Z,69.19
2018-12-03T09:33:20.219Z,69.50
2018-12-03T09:35:47.971Z,69.52
2018-12-03T09:38:15.640Z,69.08
2018-12-03T09:40:43.302Z,69.45
2018-12-03T09:43:11.008Z,69.34
2018-12-03T09:45:39.183Z,69.16
2018-12-03T09:48:06.809Z,68.35
2018-12-03T09:50:34.526Z,68.38
2018-12-03T09:53:02.237Z,67.55
2018-12-03T09:55:31.714Z,67.55
2018-12-03T09:58:12.639Z,72.49
2018-12-03T10:00:40.630Z,73.31
2018-12-03T10:03:17.367Z,72.13
2018-12-03T10:05:49.663Z,70.81
2018-12-03T10:08:21.993Z,70.00
2018-12-03T10:10:53.078Z,68.78
2018-12-03T10:13:20.699Z,67.68
2018-12-03T10:15:48.421Z,66.25
2018-12-03T10:18:16.131Z,66.56
2018-12-03T10:20:48.474Z,65.11
2018-12-03T10:23:16.314Z,65.27
2018-12-03T10:25:45.018Z,64.49
2018-12-03T10:28:12.646Z,63.23
2018-12-03T10:30:40.345Z,62.57
2018-12-03T10:33:08.068Z,63.39
2018-12-03T10:35:38.080Z,64.09
2018-12-03T10:38:15.305Z,63.40
2018-12-03T10:40:49.145Z,62.52
2018-12-03T10:43:16.874Z,63.23
2018-12-03T10:45:44.562Z,62.25
2018-12-03T10:48:12.201Z,61.93
2018-12-03T10:50:40.545Z,61.10
2018-12-03T10:53:08.325Z,60.35
2018-12-03T10:55:41.509Z,59.73
2018-12-03T10:58:12.675Z,60.04
2018-12-03T11:00:46.152Z,58.83
2018-12-03T11:03:18.469Z,58.62
2018-12-03T11:05:52.431Z,57.59
2018-12-03T11:08:21.642Z,56.25
2018-12-03T11:10:50.479Z,55.52
2018-12-03T11:13:18.155Z,51.64
2018-12-03T11:15:45.929Z,47.77
2018-12-03T11:18:13.579Z,49.52
2018-12-03T11:20:41.309Z,52.45
2018-12-03T11:23:09.471Z,49.51
2018-12-03T11:25:41.074Z,45.66
2018-12-03T11:28:11.869Z,42.98
2018-12-03T11:30:50.535Z,43.31
2018-12-03T11:33:22.028Z,43.31
2018-12-03T11:35:50.535Z,42.08
2018-12-03T11:38:33.869Z,40.98
2018-12-03T11:41:01.580Z,40.55
2018-12-03T11:43:30.322Z,40.16
2018-12-03T11:45:58.283Z,41.31
2018-12-03T11:48:25.960Z,39.00
2018-12-03T11:50:54.431Z,39.39
2018-12-03T11:53:22.078Z,37.62
2018-12-03T11:55:49.791Z,36.74
2018-12-03T11:58:17.468Z,39.41
2018-12-03T12:00:45.209Z,38.99
2018-12-03T12:03:12.881Z,40.29
2018-12-03T12:05:40.572Z,40.50
2018-12-03T12:08:08.234Z,38.92
2018-12-03T12:10:35.907Z,38.65
2018-12-03T12:13:03.673Z,40.29
2018-12-03T12:15:31.410Z,36.67
2018-12-03T12:17:59.146Z,38.54
2018-12-03T12:20:27.012Z,38.16
2018-12-03T12:22:54.703Z,42.37
2018-12-03T12:25:22.338Z,45.66
2018-12-03T12:27:53.994Z,46.12
2018-12-03T12:30:21.683Z,47.58
2018-12-03T12:32:49.623Z,49.20
2018-12-03T12:35:17.372Z,49.77
2018-12-03T12:37:56.639Z,46.01
2018-12-03T12:40:18.642Z,46.59
2018-12-03T12:42:46.342Z,49.24
2018-12-03T12:45:26.551Z,51.02
2018-12-03T12:47:54.287Z,51.73
2018-12-03T12:50:22.034Z,53.43
2018-12-03T12:52:50.564Z,55.28
2018-12-03T12:55:18.228Z,55.44
2018-12-03T12:57:45.852Z,55.73
2018-12-03T13:00:16.286Z,56.61
2018-12-03T13:02:47.250Z,56.75
2018-12-03T13:05:14.979Z,57.27
2018-12-03T13:07:42.647Z,56.76
2018-12-03T13:10:13.891Z,56.96
2018-12-03T13:12:41.814Z,57.92
2018-12-03T13:15:13.442Z,58.00
2018-12-03T13:17:44.242Z,57.66
2018-12-03T13:20:14.996Z,57.57
2018-12-03T13:22:42.784Z,56.65
2018-12-03T13:25:14.134Z,56.94
2018-12-03T13:27:41.832Z,56.41
2018-12-03T13:30:13.627Z,55.59
2018-12-03T13:32:41.324Z,55.53
2018-12-03T13:35:12.258Z,53.93
2018-12-03T13:37:39.965Z,50.90
2018-12-03T13:40:12.700Z,50.10
2018-12-03T13:42:42.001Z,49.28
2018-12-03T13:45:17.479Z,49.57
2018-12-03T13:47:45.216Z,51.78
2018-12-03T13:50:17.453Z,52.10
2018-12-03T13:52:45.455Z,54.38
2018-12-03T13:55:16.190Z,54.91
2018-12-03T13:57:43.860Z,55.75
2018-12-03T14:00:19.479Z,57.09
2018-12-03T14:03:09.025Z,57.68
2018-12-03T14:05:48.616Z,59.03
2018-12-03T14:12:44.194Z,59.87
2018-12-03T14:17:27.908Z,62.46
2018-12-03T14:19:58.745Z,62.36
2018-12-03T14:22:41.185Z,61.47
2018-12-03T14:25:09.534Z,60.36
2018-12-03T14:27:37.226Z,61.15
2018-12-03T14:30:08.473Z,60.95
2018-12-03T14:32:36.184Z,60.62
2018-12-03T14:35:08.434Z,61.52
2018-12-03T14:37:36.138Z,60.98
2018-12-03T14:40:05.857Z,61.79
2018-12-03T14:42:34.505Z,62.33
2018-12-03T14:45:03.329Z,63.39
2018-12-03T14:47:30.965Z,64.14
2018-12-03T14:49:58.653Z,63.50
2018-12-03T14:52:26.371Z,63.96
2018-12-03T14:54:54.044Z,64.69
2018-12-03T14:57:21.767Z,64.89
2018-12-03T14:59:49.516Z,64.52
2018-12-03T15:02:17.213Z,64.30
2018-12-03T15:04:45.243Z,64.78
2018-12-03T15:07:13.513Z,65.47
2018-12-03T15:09:41.184Z,65.64
2018-12-03T15:12:08.949Z,65.60
2018-12-03T15:14:36.661Z,66.19
2018-12-03T15:17:04.357Z,66.47
2018-12-03T15:19:32.764Z,66.70
2018-12-03T15:22:00.480Z,66.91
2018-12-03T15:24:28.979Z,66.62
2018-12-03T15:26:56.770Z,66.19
2018-12-03T15:29:24.470Z,66.40
2018-12-03T15:31:53.238Z,66.47
2018-12-03T15:34:21.699Z,66.47
2018-12-03T15:36:49.555Z,67.03
2018-12-03T15:39:17.201Z,67.20
2018-12-03T15:41:44.896Z,67.95
2018-12-03T15:44:12.947Z,68.14
2018-12-03T15:46:42.187Z,68.45
2018-12-03T15:49:11.107Z,68.51
2018-12-03T15:51:38.777Z,68.12
2018-12-03T15:54:07.379Z,67.93
2018-12-03T15:56:35.182Z,68.06
2018-12-03T15:59:02.909Z,68.67
2018-12-03T16:01:30.798Z,68.05
2018-12-03T16:03:58.460Z,68.70
2018-12-03T16:06:26.844Z,68.54
2018-12-03T16:08:54.661Z,68.39
2018-12-03T16:11:23.267Z,68.76
2018-12-03T16:13:52.500Z,68.47
2018-12-03T16:16:21.408Z,69.20
2018-12-03T16:18:50.090Z,69.38
2018-12-03T16:21:18.760Z,70.52
2018-12-03T16:23:46.421Z,70.44
2018-12-03T16:26:14.590Z,70.18
2018-12-03T16:28:42.361Z,70.86
2018-12-03T16:31:11.013Z,70.37
2018-12-03T16:33:39.389Z,70.30
2018-12-03T16:36:07.123Z,70.82
2018-12-03T16:38:35.685Z,69.79
2018-12-03T16:41:03.406Z,69.91
2018-12-03T16:43:31.107Z,70.78
2018-12-03T16:45:59.495Z,70.39
2018-12-03T16:48:28.232Z,70.86
2018-12-03T16:50:55.988Z,70.72
2018-12-03T16:53:23.621Z,70.50
2018-12-03T16:55:51.351Z,70.57
2018-12-03T16:58:20.136Z,70.91
2018-12-03T17:00:48.230Z,70.54
2018-12-03T17:03:17.071Z,69.84
2018-12-03T17:05:45.693Z,70.13
2018-12-03T17:08:14.141Z,69.89
2018-12-03T17:10:42.358Z,69.26
2018-12-03T17:13:10.173Z,69.32
2018-12-03T17:15:38.422Z,69.91
2018-12-03T17:18:06.959Z,70.08
2018-12-03T17:21:01.807Z,69.85
2018-12-03T17:23:41.686Z,69.77
2018-12-03T17:26:10.178Z,69.97
2018-12-03T17:28:38.914Z,69.28
2018-12-03T17:31:06.567Z,69.30
2018-12-03T17:33:34.364Z,69.22
2018-12-03T17:36:02.579Z,69.23
2018-12-03T17:38:31.206Z,68.70
2018-12-03T17:41:00.664Z,69.25
2018-12-03T17:43:28.481Z,69.02
2018-12-03T17:45:56.428Z,68.30
2018-12-03T17:48:24.512Z,67.74
2018-12-03T17:51:23.391Z,68.02
2018-12-03T17:53:50.160Z,67.95
2018-12-03T17:56:17.417Z,67.17
2018-12-03T17:58:44.972Z,67.11
2018-12-03T18:01:11.197Z,67.37
2018-12-03T18:03:37.323Z,67.62
2018-12-03T18:06:03.561Z,67.72
2018-12-03T18:08:29.955Z,68.11
2018-12-03T18:10:56.942Z,67.89
2018-12-03T18:13:23.097Z,67.65
2018-12-03T18:15:49.331Z,67.37
2018-12-03T18:18:15.810Z,67.43
2018-12-03T18:20:42.493Z,67.33
2018-12-03T18:23:08.737Z,67.14
2018-12-03T18:25:35.867Z,66.79
2018-12-03T18:28:03.315Z,66.90
2018-12-03T18:30:29.558Z,67.39
2018-12-03T18:32:56.679Z,68.22
2018-12-03T18:35:23.484Z,68.00
2018-12-03T18:37:51.175Z,68.43
2018-12-03T18:40:17.549Z,68.30
2018-12-03T18:42:43.809Z,68.78
2018-12-03T18:45:10.101Z,68.06
2018-12-03T18:47:37.421Z,67.77
2018-12-03T18:50:08.564Z,68.40
2018-12-03T18:52:34.819Z,68.49
2018-12-03T18:55:01.063Z,68.32
2018-12-03T18:57:27.298Z,68.54
2018-12-03T18:59:53.510Z,68.19
2018-12-03T19:02:19.825Z,68.22
2018-12-03T19:04:46.073Z,68.47
2018-12-03T19:07:12.299Z,68.26
2018-12-03T19:09:38.704Z,68.49
2018-12-03T19:12:05.150Z,69.14
2018-12-03T19:14:31.329Z,68.92
2018-12-03T19:16:57.762Z,69.42
2018-12-03T19:19:24.110Z,69.63
2018-12-03T19:21:50.417Z,69.23
2018-12-03T19:24:16.586Z,69.50
2018-12-03T19:26:42.803Z,69.95
2018-12-03T19:29:09.059Z,70.40
2018-12-03T19:31:36.446Z,70.10
2018-12-03T19:34:02.981Z,69.50
2018-12-03T19:36:29.352Z,69.41
2018-12-03T19:38:55.528Z,69.61
2018-12-03T19:41:21.832Z,69.59
2018-12-03T19:43:48.117Z,69.02
2018-12-03T19:46:14.417Z,68.33
2018-12-03T19:48:41.348Z,68.61
2018-12-03T19:51:07.551Z,69.56
2018-12-03T19:53:33.788Z,68.99
2018-12-03T19:56:00.349Z,69.42
2018-12-03T19:58:26.791Z,69.79
2018-12-03T20:00:53.201Z,69.35
2018-12-03T20:03:19.361Z,70.06
2018-12-03T20:05:45.513Z,70.37
2018-12-03T20:08:11.734Z,71.07
2018-12-03T20:10:38.443Z,70.95
2018-12-03T20:13:04.846Z,70.87
2018-12-03T20:15:30.968Z,70.84
2018-12-03T20:17:57.274Z,70.78
2018-12-03T20:20:23.939Z,69.91
2018-12-03T20:22:51.310Z,69.92
2018-12-03T20:25:17.794Z,69.72
2018-12-03T20:27:44.841Z,69.83
2018-12-03T20:30:17.454Z,69.40
2018-12-03T20:32:43.742Z,69.73
2018-12-03T20:35:09.926Z,69.58
2018-12-03T20:37:38.244Z,69.14
2018-12-03T20:40:13.250Z,69.26
2018-12-03T20:42:39.609Z,69.00
2018-12-03T20:45:14.995Z,69.06
2018-12-03T20:47:49.267Z,69.41
2018-12-03T20:50:18.128Z,69.80
2018-12-03T20:52:47.439Z,69.71
2018-12-03T20:55:15.661Z,69.35
2018-12-03T20:57:41.937Z,69.77
2018-12-03T21:00:09.722Z,69.64
2018-12-03T21:02:36.132Z,69.66
2018-12-03T21:05:03.945Z,69.31
2018-12-03T21:07:30.233Z,69.10
2018-12-03T21:09:56.477Z,69.05
2018-12-03T21:12:22.743Z,68.57
2018-12-03T21:14:48.884Z,68.25
2018-12-03T21:17:15.313Z,68.05
2018-12-03T21:19:41.873Z,67.88
2018-12-03T21:22:07.970Z,67.96
2018-12-03T21:24:34.181Z,66.98
2018-12-03T21:27:00.258Z,67.47
2018-12-03T21:29:26.506Z,67.50
2018-12-03T21:31:53.251Z,67.27
2018-12-03T21:34:19.396Z,66.82
2018-12-03T21:36:45.689Z,67.28
2018-12-03T21:39:11.914Z,67.82
2018-12-03T21:41:38.153Z,67.78
2018-12-03T21:44:04.562Z,67.94
2018-12-03T21:46:30.832Z,68.38
2018-12-03T21:48:57.428Z,68.10
2018-12-03T21:51:23.694Z,67.85
2018-12-03T21:53:54.517Z,67.61
2018-12-03T21:56:21.476Z,66.66
2018-12-03T21:58:47.774Z,66.82
2018-12-03T22:01:14.042Z,66.67
2018-12-03T22:03:40.138Z,66.44
2018-12-03T22:06:06.352Z,66.12
2018-12-03T22:08:32.698Z,66.04
2018-12-03T22:10:59.070Z,65.39
2018-12-03T22:13:25.387Z,64.94
2018-12-03T22:15:51.503Z,65.62
2018-12-03T22:18:18.542Z,65.71
2018-12-03T22:20:44.769Z,65.97
2018-12-03T22:23:11.016Z,65.92
2018-12-03T22:25:37.456Z,66.45
2018-12-03T22:28:03.713Z,67.06
2018-12-03T22:30:29.918Z,67.39
2018-12-03T22:32:56.235Z,67.32
2018-12-03T22:38:04.910Z,66.94
2018-12-03T22:40:31.107Z,66.55
2018-12-03T22:42:57.215Z,66.59
2018-12-03T22:45:23.441Z,66.49
2018-12-03T22:47:49.661Z,66.96
2018-12-03T22:50:15.917Z,67.60
2018-12-03T22:52:42.140Z,67.98
2018-12-03T22:55:15.495Z,68.80
2018-12-03T22:57:41.693Z,68.76
2018-12-03T23:00:14.097Z,68.28
2018-12-03T23:02:40.294Z,68.05
2018-12-03T23:05:06.773Z,68.43
2018-12-03T23:07:33.113Z,68.90
2018-12-03T23:09:59.982Z,69.40
2018-12-03T23:12:26.314Z,68.65
2018-12-03T23:14:52.460Z,69.38
2018-12-03T23:17:18.926Z,69.98
2018-12-03T23:19:45.159Z,70.90
2018-12-03T23:22:11.527Z,70.26
2018-12-03T23:24:38.501Z,68.80
2018-12-03T23:27:04.834Z,69.05
2018-12-03T23:29:30.938Z,68.52
2018-12-03T23:31:57.127Z,68.54
2018-12-03T23:34:23.274Z,68.80
2018-12-03T23:36:49.660Z,67.85
2018-12-03T23:39:15.842Z,68.39
2018-12-03T23:41:41.944Z,67.87
2018-12-03T23:44:08.024Z,68.33
2018-12-03T23:46:34.306Z,69.00
2018-12-03T23:49:00.375Z,68.45
2018-12-03T23:51:26.506Z,68.45
2018-12-03T23:53:53.720Z,68.23
2018-12-03T23:56:19.822Z,68.41
2018-12-03T23:58:45.909Z,68.82
